Time;durP1;ratioP1;P1;durP2;ratioP2;P2;SDS_P1;SDS_P2;PMS_P1;PMS_P2;Temp;Humidity;BMP_temperature;BMP_pressure;BME280_temperature;BME280_humidity;BME280_pressure;Samples;Min_cycle;Max_cycle;Signal;HPM_P1;HPM_P2
2021/11/02 00:02:08;;;;;;;3.58;2.42;;;;;;;7.37;92.15;95008.53;5049016;28;20462;-72
2021/11/02 00:04:35;;;;;;;4.63;2.40;;;;;;;7.35;91.82;95012.69;5049056;28;20045;-72
2021/11/02 00:07:01;;;;;;;3.38;2.45;;;;;;;7.33;91.77;95010.31;5048366;28;20076;-71
2021/11/02 00:09:32;;;;;;;6.20;2.78;;;;;;;7.28;91.81;95013.22;5049357;28;20385;-73
2021/11/02 00:12:00;;;;;;;4.68;2.63;;;;;;;7.30;92.15;95016.38;5048603;28;20045;-73
2021/11/02 00:14:29;;;;;;;4.60;2.83;;;;;;;7.32;91.93;95016.84;5048876;28;20048;-72
2021/11/02 00:16:59;;;;;;;5.90;2.88;;;;;;;7.32;92.21;95025.78;5048626;28;20057;-72
2021/11/02 00:19:27;;;;;;;6.85;3.00;;;;;;;7.29;91.64;95031.84;5058636;28;20131;-72
2021/11/02 00:21:56;;;;;;;6.68;2.70;;;;;;;7.27;91.99;95028.66;5066278;28;20049;-73
2021/11/02 00:24:43;;;;;;;3.53;2.75;;;;;;;7.24;91.97;95023.91;5045084;28;20088;-73
2021/11/02 00:27:09;;;;;;;4.63;2.90;;;;;;;7.24;92.15;95018.47;5047819;28;20413;-72
2021/11/02 00:29:37;;;;;;;4.30;2.90;;;;;;;7.28;92.27;95021.34;5049040;28;20419;-72
2021/11/02 00:32:04;;;;;;;5.03;3.00;;;;;;;7.30;92.08;95013.66;5048969;28;20044;-72
2021/11/02 00:34:32;;;;;;;5.40;3.33;;;;;;;7.29;92.36;95006.66;5047487;28;20581;-72
2021/11/02 00:36:59;;;;;;;4.20;2.97;;;;;;;7.29;92.08;95010.16;5048860;28;20450;-73
2021/11/02 00:39:25;;;;;;;4.38;3.13;;;;;;;7.28;91.31;95013.22;5047325;28;20771;-73
2021/11/02 00:41:52;;;;;;;5.25;3.50;;;;;;;7.27;91.42;95008.94;5048718;28;20440;-73
2021/11/02 00:44:21;;;;;;;4.70;2.85;;;;;;;7.18;91.69;95014.38;5047586;28;20048;-72
2021/11/02 00:46:50;;;;;;;3.63;2.67;;;;;;;7.13;92.10;95011.09;5048431;28;20049;-72
2021/11/02 00:49:17;;;;;;;7.20;3.17;;;;;;;7.15;92.64;95008.84;5047882;28;20140;-72
2021/11/02 00:51:44;;;;;;;4.45;2.97;;;;;;;7.15;92.45;95011.53;5048142;28;20447;-73
2021/11/02 00:54:11;;;;;;;5.35;3.25;;;;;;;7.14;92.41;95002.63;5047496;28;20083;-72
2021/11/02 00:56:37;;;;;;;4.15;3.17;;;;;;;7.16;92.90;95002.31;5047791;28;20041;-73
2021/11/02 00:59:04;;;;;;;5.85;2.95;;;;;;;7.20;92.70;95000.50;5048351;28;20424;-72
2021/11/02 01:01:30;;;;;;;4.43;2.75;;;;;;;7.21;92.76;95002.13;5047855;28;20045;-73
2021/11/02 01:03:59;;;;;;;11.57;3.20;;;;;;;7.21;92.76;94994.00;5048515;28;20056;-73
2021/11/02 01:06:25;;;;;;;4.50;2.55;;;;;;;7.19;92.28;94982.69;5047180;28;20492;-73
2021/11/02 01:08:52;;;;;;;7.38;2.47;;;;;;;7.21;92.13;94985.88;5048243;28;20060;-72
2021/11/02 01:11:19;;;;;;;5.28;2.60;;;;;;;7.23;91.92;94978.22;5047387;28;20385;-72
2021/11/02 01:13:45;;;;;;;3.53;2.30;;;;;;;7.24;92.32;94977.09;5047823;28;20044;-73
2021/11/02 01:16:12;;;;;;;2.50;2.03;;;;;;;7.22;92.37;94976.63;5047740;28;20065;-72
2021/11/02 01:18:39;;;;;;;5.28;2.50;;;;;;;7.24;92.30;94979.78;5047735;28;20057;-73
2021/11/02 01:21:06;;;;;;;3.28;1.90;;;;;;;7.20;92.34;94973.44;5047918;28;20730;-73
2021/11/02 01:23:33;;;;;;;3.65;2.08;;;;;;;7.19;92.35;94972.66;5047344;28;20056;-73
2021/11/02 01:26:00;;;;;;;4.18;2.10;;;;;;;7.22;92.61;94976.63;5048688;28;20102;-73
2021/11/02 01:28:26;;;;;;;3.80;1.95;;;;;;;7.15;92.29;94974.47;5047055;28;20056;-72
2021/11/02 01:30:53;;;;;;;5.03;2.05;;;;;;;7.13;92.32;94973.19;5047228;28;20048;-73
2021/11/02 01:33:19;;;;;;;3.42;1.80;;;;;;;7.13;92.65;94973.19;5047036;28;20099;-73
2021/11/02 01:35:46;;;;;;;2.42;1.55;;;;;;;7.13;92.38;94967.78;5047853;28;20052;-73
2021/11/02 01:38:16;;;;;;;2.42;1.60;;;;;;;7.12;92.33;94963.50;5047567;28;20060;-73
2021/11/02 01:40:43;;;;;;;4.45;2.00;;;;;;;7.10;92.55;94954.88;5047321;28;20076;-73
2021/11/02 01:43:11;;;;;;;4.72;1.70;;;;;;;7.14;93.02;94953.13;5047323;28;20498;-72
2021/11/02 01:45:38;;;;;;;7.63;2.10;;;;;;;7.14;92.73;94955.81;5046748;28;20053;-73
2021/11/02 01:48:06;;;;;;;3.38;2.10;;;;;;;7.17;93.21;94949.75;5047767;28;20050;-73
2021/11/02 01:50:34;;;;;;;2.80;1.95;;;;;;;7.17;92.90;94957.88;5047082;28;20517;-72
2021/11/02 01:53:00;;;;;;;2.97;1.80;;;;;;;7.17;92.92;94952.47;5047737;28;20056;-73
2021/11/02 01:55:28;;;;;;;2.72;1.55;;;;;;;7.16;92.83;94943.56;5046838;28;20454;-72
2021/11/02 01:57:55;;;;;;;2.38;1.70;;;;;;;7.15;92.35;94943.88;5047889;28;20037;-73
2021/11/02 02:00:22;;;;;;;2.85;1.40;;;;;;;7.18;92.74;94943.22;5046839;28;20164;-72
2021/11/02 02:02:58;;;;;;;3.13;1.27;;;;;;;7.20;92.65;94941.75;5047912;28;20045;-72
2021/11/02 02:05:34;;;;;;;2.92;1.33;;;;;;;7.16;92.31;94935.44;5047347;28;20426;-74
2021/11/02 02:08:11;;;;;;;2.35;1.52;;;;;;;7.17;91.94;94933.50;5047066;28;20045;-74
2021/11/02 02:10:48;;;;;;;3.50;1.35;;;;;;;7.12;91.66;94933.72;5047568;28;20040;-75
2021/11/02 02:13:23;;;;;;;7.32;2.33;;;;;;;7.04;91.74;94938.06;5046583;28;20056;-75
2021/11/02 02:15:55;;;;;;;3.25;1.25;;;;;;;7.00;91.75;94935.22;5047763;28;20041;-74
2021/11/02 02:18:25;;;;;;;6.60;1.40;;;;;;;7.02;92.24;94946.50;5047311;28;20048;-74
2021/11/02 02:21:09;;;;;;;3.63;1.70;;;;;;;7.11;92.03;94942.97;5046870;28;20049;-74
2021/11/02 02:23:52;;;;;;;4.05;1.40;;;;;;;7.09;91.84;94945.19;5047246;28;20613;-74
2021/11/02 02:26:33;;;;;;;2.78;1.60;;;;;;;7.12;92.26;94939.13;5046322;28;20404;-75
2021/11/02 02:29:03;;;;;;;2.42;1.40;;;;;;;7.12;92.35;94933.72;5047572;28;20048;-74
2021/11/02 02:31:32;;;;;;;3.38;1.35;;;;;;;7.14;92.51;94934.16;5046745;28;20518;-75
2021/11/02 02:34:00;;;;;;;1.95;1.23;;;;;;;7.16;92.62;94931.94;5046776;28;20041;-74
2021/11/02 02:36:29;;;;;;;4.00;1.05;;;;;;;7.23;92.54;94932.97;5047056;28;20060;-75
2021/11/02 02:38:56;;;;;;;2.63;1.38;;;;;;;7.27;92.09;94933.91;5046243;28;20747;-75
2021/11/02 02:41:24;;;;;;;2.03;1.20;;;;;;;7.29;91.86;94930.84;5048384;28;20428;-74
2021/11/02 02:43:52;;;;;;;1.60;0.90;;;;;;;7.32;91.24;94928.28;5050288;28;20049;-72
2021/11/02 02:46:21;;;;;;;1.42;0.90;;;;;;;7.35;90.79;94931.44;5050910;28;20053;-74
2021/11/02 02:48:49;;;;;;;1.85;1.10;;;;;;;7.33;90.74;94937.19;5050422;28;20049;-74
2021/11/02 02:51:17;;;;;;;2.70;0.98;;;;;;;7.36;90.69;94938.44;5049438;28;20053;-75
2021/11/02 02:53:45;;;;;;;1.63;1.05;;;;;;;7.37;90.31;94946.25;5049904;28;20053;-74
2021/11/02 02:56:12;;;;;;;3.20;1.00;;;;;;;7.40;90.06;94934.75;5049798;28;20045;-75
2021/11/02 02:58:43;;;;;;;1.13;0.90;;;;;;;7.39;90.23;94933.16;5050828;28;20045;-74
2021/11/02 03:01:11;;;;;;;4.22;1.00;;;;;;;7.36;89.72;94933.84;5049582;28;20454;-77
2021/11/02 03:03:45;;;;;;;1.50;0.98;;;;;;;7.34;90.03;94933.38;5051085;28;20052;-74
2021/11/02 03:06:41;;;;;;;1.88;1.00;;;;;;;7.36;90.23;94928.44;5049540;28;20045;-75
2021/11/02 03:09:08;;;;;;;2.60;1.00;;;;;;;7.36;89.99;94928.44;5047409;28;20457;-74
2021/11/02 03:11:36;;;;;;;1.02;0.88;;;;;;;7.38;90.16;94926.16;5050341;28;20052;-75
2021/11/02 03:14:08;;;;;;;3.33;1.52;;;;;;;7.43;89.28;94922.47;5049294;28;20060;-75
2021/11/02 03:16:44;;;;;;;1.30;0.93;;;;;;;7.43;89.34;94927.88;5050743;28;20045;-74
2021/11/02 03:19:48;;;;;;;2.67;1.20;;;;;;;7.43;89.28;94931.38;5049007;28;20049;-73
2021/11/02 03:44:59;;;;;;;3.00;1.05;;;;;;;7.23;88.30;94926.78;5006571;28;20076;-72
2021/11/02 03:50:22;;;;;;;1.75;1.20;;;;;;;7.15;88.30;94935.75;5028702;28;20227;-72
2021/11/02 03:55:41;;;;;;;6.00;1.50;;;;;;;7.12;88.34;94934.50;5049032;28;20122;-72
2021/11/02 03:58:12;;;;;;;3.85;1.60;;;;;;;7.10;88.32;94931.34;5048946;28;20080;-73
2021/11/02 04:31:35;;;;;;;2.10;1.40;;;;;;;6.79;87.49;94939.84;5047877;28;20094;-72
2021/11/02 04:34:34;;;;;;;2.38;1.27;;;;;;;6.74;87.39;94946.22;5048047;28;20052;-72
2021/11/02 05:07:50;;;;;;;5.35;1.83;;;;;;;6.30;87.22;94952.16;5028156;28;20095;-72
2021/11/02 05:10:34;;;;;;;6.97;1.90;;;;;;;6.28;87.68;94949.78;5026762;28;20081;-72
2021/11/02 05:13:29;;;;;;;3.25;2.05;;;;;;;6.24;87.53;94944.25;5028639;28;20046;-71
2021/11/02 05:49:35;;;;;;;5.03;2.33;;;;;;;6.14;87.16;94954.63;4990379;28;20080;-72
2021/11/02 05:52:30;;;;;;;3.88;2.42;;;;;;;6.12;87.56;94951.44;5027988;28;20053;-72
2021/11/02 05:57:49;;;;;;;6.35;2.60;;;;;;;6.07;87.67;94963.22;5027707;28;20056;-72
2021/11/02 06:00:18;;;;;;;7.57;3.13;;;;;;;6.06;87.78;94955.44;5027064;28;20051;-73
2021/11/02 06:03:03;;;;;;;16.55;5.32;;;;;;;6.05;87.74;94959.25;5027486;28;20041;-74
2021/11/02 06:11:31;;;;;;;17.70;7.40;;;;;;;6.05;88.14;94961.94;5021143;28;20563;-73
2021/11/02 06:28:04;;;;;;;6.32;4.07;;;;;;;6.07;86.06;94970.53;5051840;28;20129;-76
2021/11/02 06:30:37;;;;;;;7.25;3.70;;;;;;;6.03;86.23;94969.59;5050285;28;20126;-76
2021/11/02 06:33:08;;;;;;;5.90;3.58;;;;;;;6.04;86.75;94973.88;5050778;28;20401;-73
2021/11/02 06:35:39;;;;;;;6.15;3.15;;;;;;;6.01;87.28;94973.41;5050758;28;20132;-74
2021/11/02 06:55:21;;;;;;;7.35;5.03;;;;;;;6.06;88.73;94985.97;5030843;28;20056;-74
2021/11/02 06:58:18;;;;;;;11.50;6.55;;;;;;;6.09;88.80;94984.53;5030505;28;20064;-74
2021/11/02 07:10:54;;;;;;;13.70;6.88;;;;;;;6.15;89.21;94988.63;5029998;28;20554;-74
2021/11/02 07:17:58;;;;;;;5.88;4.10;;;;;;;6.69;89.40;94992.41;4968355;28;20139;-74
2021/11/02 07:20:35;;;;;;;;;;;;;;;6.80;89.41;94992.81;4968658;28;20053;-74
2021/11/02 07:25:52;;;;;;;9.15;3.97;;;;;;;6.97;89.33;94997.34;5047425;28;20133;-74
2021/11/02 08:46:30;;;;;;;3.53;1.25;;;;;;;9.03;79.39;95003.78;5048313;28;20056;-74
2021/11/02 08:49:00;;;;;;;3.20;1.60;;;;;;;8.98;78.56;94997.75;5047984;28;20052;-74
2021/11/02 08:51:28;;;;;;;4.80;1.30;;;;;;;8.96;78.84;95000.81;5047951;28;20484;-73
2021/11/02 08:53:55;;;;;;;3.45;1.33;;;;;;;8.90;79.02;94999.47;5047948;28;20044;-74
2021/11/02 08:56:22;;;;;;;4.72;1.27;;;;;;;8.84;79.63;95000.84;5047317;28;20420;-74
2021/11/02 08:58:51;;;;;;;4.90;1.13;;;;;;;8.88;79.34;94997.09;5048486;28;20041;-74
2021/11/02 09:01:20;;;;;;;4.03;1.48;;;;;;;8.99;80.98;94994.72;5047132;28;20061;-74
2021/11/02 09:03:49;;;;;;;5.00;0.98;;;;;;;9.01;78.81;94999.81;5048482;28;20559;-74
2021/11/02 09:06:18;;;;;;;2.65;1.30;;;;;;;9.14;78.59;94993.25;5047272;28;20076;-74
2021/11/02 09:08:48;;;;;;;3.55;1.10;;;;;;;9.30;79.58;94996.06;5048158;28;20103;-76
2021/11/02 09:11:16;;;;;;;2.00;1.20;;;;;;;9.36;77.80;94994.69;5047331;28;20048;-74
2021/11/02 09:13:46;;;;;;;2.78;1.38;;;;;;;9.37;78.79;94994.31;5047587;28;20073;-74
2021/11/02 09:16:14;;;;;;;3.65;1.45;;;;;;;9.54;78.51;94987.81;5047568;28;20055;-74
2021/11/02 09:18:42;;;;;;;4.13;1.30;;;;;;;9.70;76.77;94993.31;5047232;28;20499;-74
2021/11/02 09:21:10;;;;;;;2.55;1.30;;;;;;;9.81;76.17;94990.91;5047774;28;20051;-74
2021/11/02 09:23:37;;;;;;;2.42;1.25;;;;;;;9.91;76.25;94993.13;5046835;28;20059;-75
2021/11/02 09:26:04;;;;;;;2.25;1.10;;;;;;;10.02;74.47;94987.97;5047684;28;20044;-74
2021/11/02 09:28:32;;;;;;;1.73;1.10;;;;;;;10.02;74.04;94988.75;5047605;28;20044;-73
2021/11/02 09:30:59;;;;;;;6.13;1.30;;;;;;;10.13;75.06;94989.06;5047983;28;20049;-74
2021/11/02 09:33:25;;;;;;;2.17;1.30;;;;;;;10.36;76.17;94987.38;5047111;28;20053;-74
2021/11/02 09:35:59;;;;;;;2.90;1.10;;;;;;;10.65;73.42;94988.91;5047710;28;20067;-76
2021/11/02 09:38:28;;;;;;;;;;;;;;;10.78;74.43;94991.53;5048065;28;20045;-78
2021/11/02 09:41:45;;;;;;;3.78;1.40;;;;;;;11.04;75.11;94989.03;5047363;28;19928;-73
2021/11/02 09:44:52;;;;;;;3.47;1.20;;;;;;;11.16;70.23;95002.53;4996873;28;20045;-73
2021/11/02 09:48:00;;;;;;;3.78;1.40;;;;;;;11.24;72.91;94990.66;5027340;28;20053;-73
2021/11/02 09:50:59;;;;;;;2.05;1.20;;;;;;;11.13;71.25;94995.09;5043153;28;20041;-74
2021/11/02 09:54:08;;;;;;;2.05;1.00;;;;;;;11.15;72.34;94989.28;5047015;28;20053;-73
2021/11/02 09:56:53;;;;;;;2.80;1.05;;;;;;;11.37;72.92;94985.88;5040834;28;20484;-73
2021/11/02 09:59:55;;;;;;;5.43;1.02;;;;;;;11.57;68.36;94978.50;5046286;28;20048;-74
2021/11/02 10:03:06;;;;;;;2.20;1.30;;;;;;;11.81;69.94;94982.13;5047215;28;20053;-73
2021/11/02 10:05:48;;;;;;;3.13;1.00;;;;;;;11.78;70.34;94980.91;5047555;28;20529;-74
2021/11/02 10:08:33;;;;;;;2.75;0.80;;;;;;;11.98;67.87;94976.25;5046221;28;20057;-76
2021/11/02 10:11:16;;;;;;;5.10;0.80;;;;;;;11.79;64.94;94973.50;5047065;28;20076;-75
2021/11/02 10:14:10;;;;;;;2.90;0.70;;;;;;;11.54;66.07;94973.78;5046832;28;20044;-75
2021/11/02 10:17:03;;;;;;;3.72;1.05;;;;;;;11.35;66.09;94968.31;5046508;28;20052;-75
2021/11/02 10:20:02;;;;;;;3.43;0.67;;;;;;;11.49;68.45;94965.91;5045733;28;20476;-74
2021/11/02 10:23:08;;;;;;;1.92;0.70;;;;;;;11.91;67.47;94970.69;5046362;28;20059;-74
2021/11/02 10:26:02;;;;;;;4.10;0.98;;;;;;;12.50;66.46;94966.69;5040635;28;20041;-75
2021/11/02 10:29:14;;;;;;;4.63;0.95;;;;;;;12.71;62.45;94964.31;5047578;28;20045;-74
2021/11/02 10:31:48;;;;;;;2.55;0.77;;;;;;;12.78;64.45;94964.41;5047444;28;20496;-73
2021/11/02 10:34:30;;;;;;;1.90;0.60;;;;;;;12.88;62.75;94963.03;5046694;28;20053;-73
2021/11/02 10:37:12;;;;;;;2.10;0.60;;;;;;;13.05;59.65;94951.59;5047977;28;20511;-73
2021/11/02 10:39:57;;;;;;;4.00;0.82;;;;;;;13.12;62.27;94961.84;5046706;28;20051;-73
2021/11/02 10:42:41;;;;;;;2.33;0.68;;;;;;;13.06;57.69;94949.66;5045914;28;20449;-73
2021/11/02 10:45:12;;;;;;;1.80;0.70;;;;;;;13.01;59.00;94955.41;5046839;28;20557;-73
2021/11/02 10:47:45;;;;;;;0.90;0.57;;;;;;;13.11;58.80;94954.00;5046721;28;20049;-73
2021/11/02 10:50:12;;;;;;;;;;;;;;;12.93;55.95;94953.72;5047625;28;20052;-72
2021/11/02 10:52:40;;;;;;;1.00;0.52;;;;;;;12.91;57.90;94956.03;5046438;28;19921;-73
2021/11/02 10:55:22;;;;;;;2.63;0.70;;;;;;;12.94;59.46;94944.38;5047134;28;20136;-72
2021/11/02 10:58:06;;;;;;;5.00;0.80;;;;;;;12.98;59.81;94939.75;5046595;28;20535;-74
2021/11/02 11:00:34;;;;;;;5.13;1.02;;;;;;;12.85;58.85;94936.44;5046750;28;20041;-74
2021/11/02 11:03:07;;;;;;;1.40;0.65;;;;;;;12.69;56.43;94950.25;5049168;28;20095;-70
2021/11/02 11:05:34;;;;;;;2.05;0.60;;;;;;;12.79;58.21;94943.38;5050418;28;20055;-74
2021/11/02 11:08:03;;;;;;;2.25;0.80;;;;;;;12.71;56.53;94947.94;5051019;28;20052;-73
2021/11/02 11:10:31;;;;;;;1.10;0.60;;;;;;;12.76;58.30;94950.34;5049650;28;20041;-73
2021/11/02 11:13:00;;;;;;;0.75;0.40;;;;;;;12.47;56.32;94953.75;5051038;28;20057;-73
2021/11/02 11:15:28;;;;;;;1.63;0.50;;;;;;;12.23;58.10;94952.97;5049310;28;20041;-73
2021/11/02 11:18:02;;;;;;;1.40;0.50;;;;;;;12.16;58.91;94950.13;5050532;28;20519;-75
2021/11/02 11:20:30;;;;;;;2.30;0.50;;;;;;;12.11;60.31;94942.22;5049708;28;20049;-73
2021/11/02 11:22:58;;;;;;;3.25;0.60;;;;;;;12.05;58.07;94949.09;5049892;28;20060;-73
2021/11/02 11:25:30;;;;;;;2.53;0.70;;;;;;;11.93;57.31;94949.28;5049470;28;20083;-73
2021/11/02 11:27:58;;;;;;;1.48;0.60;;;;;;;11.82;58.08;94942.81;5049808;28;20411;-73
2021/11/02 11:30:28;;;;;;;1.58;0.70;;;;;;;11.64;58.21;94943.25;5049993;28;20073;-73
2021/11/02 11:32:56;;;;;;;2.67;0.68;;;;;;;11.56;58.91;94946.97;5049110;28;20087;-73
2021/11/02 11:35:23;;;;;;;1.48;0.40;;;;;;;11.55;58.09;94942.66;5049571;28;20053;-73
2021/11/02 11:37:52;;;;;;;2.50;0.60;;;;;;;11.52;58.91;94948.81;5049106;28;20056;-74
2021/11/02 11:40:21;;;;;;;4.22;0.80;;;;;;;11.43;60.39;94940.88;5049685;28;20049;-73
2021/11/02 11:42:49;;;;;;;2.17;0.55;;;;;;;11.68;60.32;94933.16;5049771;28;20496;-73
2021/11/02 11:45:18;;;;;;;2.10;0.70;;;;;;;11.87;60.70;94942.53;5049248;28;20456;-73
2021/11/02 11:47:46;;;;;;;2.35;0.40;;;;;;;11.88;58.15;94944.09;5050086;28;20064;-74
2021/11/02 11:50:28;;;;;;;0.57;0.35;;;;;;;11.74;56.50;94941.84;5048792;28;20071;-74
2021/11/02 11:52:59;;;;;;;2.88;0.45;;;;;;;11.64;56.59;94934.25;5049676;28;20147;-73
2021/11/02 11:55:28;;;;;;;2.97;0.43;;;;;;;11.56;55.92;94938.78;5049217;28;20044;-73
2021/11/02 11:58:10;;;;;;;1.65;0.82;;;;;;;11.43;55.63;94940.03;5049733;28;20056;-73
2021/11/02 12:00:39;;;;;;;2.30;0.40;;;;;;;11.31;56.75;94940.19;5049488;28;20049;-73
2021/11/02 12:03:17;;;;;;;5.78;0.80;;;;;;;11.29;58.51;94940.56;5048587;28;20543;-73
2021/11/02 12:05:53;;;;;;;1.80;0.60;;;;;;;11.29;58.09;94934.31;5049681;28;20496;-73
2021/11/02 12:08:23;;;;;;;1.75;0.45;;;;;;;11.30;57.47;94935.88;5048317;28;20508;-72
2021/11/02 12:10:53;;;;;;;6.78;0.90;;;;;;;11.33;57.66;94930.53;5049782;28;20052;-73
2021/11/02 12:13:20;;;;;;;4.90;0.60;;;;;;;11.35;56.04;94938.34;5048272;28;20464;-73
2021/11/02 12:16:08;;;;;;;1.95;0.60;;;;;;;11.31;55.43;94930.06;5048922;28;20053;-73
2021/11/02 12:18:37;;;;;;;4.85;0.68;;;;;;;11.26;56.05;94935.00;5048780;28;20047;-73
2021/11/02 12:21:08;;;;;;;3.00;0.55;;;;;;;11.26;57.17;94940.47;5048133;28;20045;-73
2021/11/02 12:23:39;;;;;;;3.80;0.75;;;;;;;11.29;57.78;94939.75;5049142;28;20052;-73
2021/11/02 12:26:07;;;;;;;3.53;0.65;;;;;;;11.15;58.32;94965.53;5047691;28;20555;-73
2021/11/02 12:28:35;;;;;;;5.07;0.70;;;;;;;10.85;61.04;94965.22;5049321;28;20049;-72
2021/11/02 12:31:05;;;;;;;4.55;0.70;;;;;;;10.34;64.46;94962.47;5047837;28;20545;-74
2021/11/02 12:33:33;;;;;;;1.55;0.60;;;;;;;10.00;67.06;94958.41;5048824;28;20048;-73
2021/11/02 12:36:03;;;;;;;3.20;0.70;;;;;;;9.77;68.43;94954.69;5048406;28;20052;-73
2021/11/02 12:38:36;;;;;;;3.47;0.80;;;;;;;9.67;70.35;94953.25;5048038;28;20041;-73
2021/11/02 12:41:15;;;;;;;1.60;0.60;;;;;;;9.61;70.71;94958.16;5048549;28;20053;-72
2021/11/02 12:43:42;;;;;;;3.67;0.98;;;;;;;9.63;71.23;94966.72;5047793;28;20548;-73
2021/11/02 12:46:10;;;;;;;1.58;0.60;;;;;;;9.60;70.73;94967.41;5048453;28;20519;-72
2021/11/02 12:48:37;;;;;;;3.42;0.65;;;;;;;9.65;72.74;94964.44;5047923;28;20128;-73
2021/11/02 12:51:05;;;;;;;2.55;0.93;;;;;;;9.77;72.10;94971.78;5048363;28;20049;-73
2021/11/02 12:53:39;;;;;;;2.70;0.80;;;;;;;9.93;71.93;94958.22;5047714;28;20404;-73
2021/11/02 12:56:16;;;;;;;2.08;0.70;;;;;;;10.07;71.74;94961.31;5047817;28;20061;-73
2021/11/02 12:58:46;;;;;;;2.75;0.70;;;;;;;10.12;69.43;94969.22;5048544;28;20497;-73
2021/11/02 13:01:12;;;;;;;2.67;0.68;;;;;;;10.11;70.26;94964.13;5047089;28;20048;-73
2021/11/02 13:03:45;;;;;;;3.30;0.70;;;;;;;10.03;69.29;94963.16;5048696;28;20056;-73
2021/11/02 13:06:12;;;;;;;3.17;0.60;;;;;;;10.00;70.40;94963.84;5046900;28;20057;-73
2021/11/02 13:08:47;;;;;;;1.40;0.68;;;;;;;10.01;71.43;94960.00;5048594;28;20056;-73
2021/11/02 13:11:15;;;;;;;0.85;0.50;;;;;;;10.09;71.72;94963.72;5047233;28;20056;-73
2021/11/02 13:14:01;;;;;;;6.13;0.70;;;;;;;10.20;69.56;94972.94;5048072;28;20056;-73
2021/11/02 13:16:52;;;;;;;2.00;0.50;;;;;;;10.24;68.73;94979.28;5047547;28;20040;-73
2021/11/02 13:19:21;;;;;;;1.02;0.43;;;;;;;10.26;67.10;94970.78;5046455;28;20057;-73
2021/11/02 13:21:48;;;;;;;3.47;0.65;;;;;;;10.37;67.39;94977.28;5048570;28;20420;-74
2021/11/02 13:24:24;;;;;;;2.70;0.73;;;;;;;10.48;66.60;94978.34;5046454;28;20049;-73
2021/11/02 13:26:54;;;;;;;2.25;0.70;;;;;;;10.54;66.52;94960.59;5047061;28;20080;-73
2021/11/02 13:29:23;;;;;;;2.05;0.45;;;;;;;10.50;66.10;94967.91;5047377;28;20057;-73
2021/11/02 13:31:51;;;;;;;4.28;0.70;;;;;;;10.39;66.17;94972.28;5047594;28;20037;-74
2021/11/02 13:34:19;;;;;;;1.50;0.43;;;;;;;10.34;66.11;94967.91;5047101;28;20056;-73
2021/11/02 13:36:47;;;;;;;1.20;0.43;;;;;;;10.35;66.25;94969.47;5047152;28;20057;-73
2021/11/02 13:39:16;;;;;;;2.25;0.52;;;;;;;10.39;66.50;94975.00;5047337;28;20048;-73
2021/11/02 13:41:48;;;;;;;1.88;0.60;;;;;;;10.37;66.91;94971.84;5047491;28;20056;-73
2021/11/02 13:44:15;;;;;;;3.85;0.65;;;;;;;10.40;66.89;94966.50;5047799;28;20076;-74
2021/11/02 13:46:44;;;;;;;2.25;0.60;;;;;;;10.39;65.94;94964.13;5048124;28;20072;-73
2021/11/02 13:49:12;;;;;;;2.30;0.60;;;;;;;10.39;65.17;94969.56;5047326;28;20051;-74
2021/11/02 13:51:39;;;;;;;3.35;0.60;;;;;;;10.38;66.13;94962.53;5047529;28;20523;-73
2021/11/02 13:54:09;;;;;;;1.58;0.52;;;;;;;10.54;66.06;94960.59;5046759;28;20072;-73
2021/11/02 13:56:39;;;;;;;1.17;0.50;;;;;;;10.75;65.45;94971.22;5047720;28;20049;-73
2021/11/02 13:59:07;;;;;;;1.88;0.52;;;;;;;10.86;65.02;94966.84;5045894;28;20144;-73
2021/11/02 14:01:37;;;;;;;2.03;0.45;;;;;;;10.89;64.06;94965.31;5048405;28;20408;-73
2021/11/02 14:04:10;;;;;;;1.92;0.70;;;;;;;11.05;64.29;94968.81;5046464;28;20142;-72
2021/11/02 14:06:40;;;;;;;0.70;0.32;;;;;;;11.27;63.02;94966.56;5048135;28;20049;-74
2021/11/02 14:09:10;;;;;;;1.85;0.60;;;;;;;11.50;64.27;94957.34;5047051;28;20056;-72
2021/11/02 14:11:40;;;;;;;1.05;0.50;;;;;;;11.69;60.93;94967.50;5047378;28;20564;-73
2021/11/02 14:14:09;;;;;;;1.30;0.40;;;;;;;11.68;61.90;94968.63;5047302;28;20049;-73
2021/11/02 14:16:39;;;;;;;2.05;0.55;;;;;;;11.68;61.26;94963.16;5047201;28;20045;-74
2021/11/02 14:19:37;;;;;;;0.98;0.40;;;;;;;11.52;61.46;94954.25;5046810;28;20057;-73
2021/11/02 14:22:05;;;;;;;3.05;0.60;;;;;;;11.41;62.67;94961.44;5046498;28;20061;-72
2021/11/02 14:24:36;;;;;;;1.65;0.50;;;;;;;11.27;61.85;94972.00;5047329;28;20052;-74
2021/11/02 14:27:06;;;;;;;3.10;0.68;;;;;;;11.15;62.92;94968.25;5046755;28;20049;-72
2021/11/02 14:30:03;;;;;;;1.48;0.70;;;;;;;10.96;61.88;94965.47;5047404;28;20056;-73
2021/11/02 14:32:50;;;;;;;2.13;0.50;;;;;;;10.87;63.45;94962.19;5004797;28;20049;-74
2021/11/02 14:35:40;;;;;;;2.22;0.40;;;;;;;10.74;62.92;94968.84;5041749;28;20053;-73
2021/11/02 14:38:08;;;;;;;1.60;0.40;;;;;;;10.65;62.50;94966.34;5049279;28;20053;-72
2021/11/02 14:40:37;;;;;;;1.08;0.40;;;;;;;10.59;62.81;94973.94;5050781;28;20053;-73
2021/11/02 14:46:03;;;;;;;1.73;0.80;;;;;;;10.63;62.67;94974.81;5068882;27;20410;-75
2021/11/02 14:48:39;;;;;;;0.73;0.30;;;;;;;10.63;62.15;94980.28;5064484;28;20128;-75
2021/11/02 14:51:07;;;;;;;1.10;0.32;;;;;;;10.71;62.05;94975.81;5065017;28;20283;-75
2021/11/02 14:53:36;;;;;;;1.25;0.55;;;;;;;10.73;62.55;94972.72;5053768;28;20634;-75
2021/11/02 14:56:06;;;;;;;0.50;0.30;;;;;;;10.77;62.94;94976.34;5043867;28;20429;-73
2021/11/02 14:58:47;;;;;;;2.33;0.45;;;;;;;10.78;61.56;94969.72;5045328;28;20495;-75
2021/11/02 15:01:18;;;;;;;2.97;0.40;;;;;;;10.74;61.49;94968.84;5044140;28;20056;-74
2021/11/02 15:03:51;;;;;;;1.50;0.40;;;;;;;10.68;62.01;94966.41;5044873;28;20068;-75
2021/11/02 15:06:18;;;;;;;;;;;;;;;10.65;61.45;94972.56;5044313;28;20053;-75
2021/11/02 15:08:46;;;;;;;0.80;0.40;;;;;;;10.55;62.70;94966.84;5045164;28;19929;-75
2021/11/02 15:11:15;;;;;;;0.65;0.38;;;;;;;10.50;61.54;94970.63;5043798;28;20068;-75
2021/11/02 15:13:47;;;;;;;1.83;0.60;;;;;;;10.46;62.28;94972.47;5044611;28;20582;-75
2021/11/02 15:16:14;;;;;;;1.30;0.50;;;;;;;10.47;62.35;94975.97;5043802;28;20056;-74
2021/11/02 15:18:44;;;;;;;0.77;0.40;;;;;;;10.46;62.24;94980.63;5044062;28;20049;-74
2021/11/02 15:21:11;;;;;;;2.90;0.40;;;;;;;10.39;61.64;94977.75;5044299;28;20064;-74
2021/11/02 15:23:43;;;;;;;0.63;0.40;;;;;;;10.31;61.48;94974.03;5046415;28;20045;-75
2021/11/02 15:26:10;;;;;;;3.03;0.60;;;;;;;10.25;61.99;94980.88;5044101;28;20054;-74
2021/11/02 15:28:45;;;;;;;0.50;0.30;;;;;;;10.17;62.41;94979.84;5043968;28;20411;-77
2021/11/02 15:31:13;;;;;;;2.92;0.40;;;;;;;10.09;63.09;94983.53;5043921;28;20048;-74
2021/11/02 15:33:42;;;;;;;1.23;0.40;;;;;;;10.02;62.80;94988.75;5043628;28;20048;-74
2021/11/02 15:36:21;;;;;;;0.88;0.43;;;;;;;9.97;63.95;94997.19;5042490;28;20500;-74
2021/11/02 15:38:59;;;;;;;0.45;0.32;;;;;;;9.93;63.70;94993.59;5044408;28;20057;-75
2021/11/02 15:41:26;;;;;;;0.90;0.60;;;;;;;9.87;63.82;94995.75;5042927;28;20049;-74
2021/11/02 15:43:54;;;;;;;0.98;0.50;;;;;;;9.82;64.07;94997.94;5044029;28;20744;-74
2021/11/02 15:46:24;;;;;;;1.02;0.60;;;;;;;9.77;64.38;95009.06;5042638;28;20102;-74
2021/11/02 15:48:54;;;;;;;2.00;0.50;;;;;;;9.73;64.60;95008.16;5044172;28;20057;-75
2021/11/02 15:51:21;;;;;;;1.10;0.40;;;;;;;9.67;64.64;95013.06;5043255;28;20053;-74
2021/11/02 15:53:48;;;;;;;0.98;0.60;;;;;;;9.59;64.63;95009.31;5058317;28;20048;-75
2021/11/02 15:56:14;;;;;;;1.67;0.60;;;;;;;9.54;64.82;95008.78;5055427;28;20056;-74
2021/11/02 15:58:41;;;;;;;0.77;0.55;;;;;;;9.49;64.92;95007.09;5050354;28;20060;-75
2021/11/02 16:01:07;;;;;;;2.33;0.80;;;;;;;9.43;64.83;95008.47;5050222;28;20053;-73
2021/11/02 16:03:35;;;;;;;0.85;0.60;;;;;;;9.42;64.75;95015.03;5049850;28;20057;-74
2021/11/02 16:06:05;;;;;;;0.60;0.50;;;;;;;9.38;65.43;95014.13;5050123;28;20052;-73
2021/11/02 16:08:32;;;;;;;1.38;0.70;;;;;;;9.31;65.61;95025.59;5050056;28;20087;-75
2021/11/02 16:11:04;;;;;;;1.25;0.52;;;;;;;9.25;65.33;95020.72;5050755;28;20060;-75
2021/11/02 16:13:31;;;;;;;3.35;0.52;;;;;;;9.20;65.61;95026.41;5049724;28;20052;-75
2021/11/02 16:15:59;;;;;;;0.63;0.40;;;;;;;9.17;65.76;95021.63;5049785;28;20539;-75
2021/11/02 16:18:28;;;;;;;2.83;0.50;;;;;;;9.13;65.74;95032.38;5049628;28;20052;-75
2021/11/02 16:20:58;;;;;;;0.82;0.47;;;;;;;9.09;65.94;95035.00;5049950;28;20041;-75
2021/11/02 16:23:38;;;;;;;1.05;0.50;;;;;;;9.04;66.49;95037.94;5040335;28;20123;-75
2021/11/02 16:26:13;;;;;;;3.00;0.80;;;;;;;8.99;66.73;95030.03;5028736;28;20052;-75
2021/11/02 16:28:39;;;;;;;3.22;0.80;;;;;;;8.96;67.11;95040.75;5030321;28;20053;-75